createdAt,value
2018-05-08T00:00:49.782Z,1.90
2018-05-08T00:03:17.393Z,1.90
2018-05-08T00:05:45.006Z,1.73
2018-05-08T00:08:12.608Z,2.10
2018-05-08T00:10:40.231Z,2.00
2018-05-08T00:13:08.600Z,1.80
2018-05-08T00:15:36.223Z,2.10
2018-05-08T00:18:03.848Z,1.90
2018-05-08T00:20:32.208Z,1.83
2018-05-08T00:22:59.810Z,2.00
2018-05-08T00:25:27.436Z,1.90
2018-05-08T00:27:54.982Z,1.90
2018-05-08T00:30:22.606Z,2.07
2018-05-08T00:32:50.222Z,2.07
2018-05-08T00:35:18.594Z,1.90
2018-05-08T00:37:47.700Z,2.03
2018-05-08T00:40:15.306Z,2.03
2018-05-08T00:42:42.910Z,1.90
2018-05-08T00:45:10.506Z,1.90
2018-05-08T00:47:38.108Z,1.80
2018-05-08T00:50:05.718Z,1.93
2018-05-08T00:52:33.359Z,2.00
2018-05-08T00:55:04.697Z,1.90
2018-05-08T00:57:32.289Z,1.90
2018-05-08T00:59:59.880Z,1.83
2018-05-08T01:02:27.461Z,1.83
2018-05-08T01:04:55.143Z,1.90
2018-05-08T01:07:22.700Z,1.90
2018-05-08T01:09:50.323Z,2.10
2018-05-08T01:12:17.936Z,2.07
2018-05-08T01:14:46.321Z,1.90
2018-05-08T01:17:14.702Z,2.00
2018-05-08T01:19:43.091Z,1.87
2018-05-08T01:22:10.737Z,1.90
2018-05-08T01:24:39.122Z,1.63
2018-05-08T01:27:07.475Z,1.93
2018-05-08T01:29:35.089Z,1.90
2018-05-08T01:32:02.701Z,1.70
2018-05-08T01:34:30.345Z,1.70
2018-05-08T01:36:57.948Z,2.00
2018-05-08T01:39:26.314Z,2.00
2018-05-08T01:41:54.681Z,1.73
2018-05-08T01:44:22.296Z,1.70
2018-05-08T01:46:49.896Z,1.60
2018-05-08T01:49:17.557Z,1.87
2018-05-08T01:51:45.152Z,1.47
2018-05-08T01:54:12.742Z,1.80
2018-05-08T01:56:40.331Z,1.67
2018-05-08T01:59:07.921Z,1.63
2018-05-08T02:01:35.575Z,1.80
2018-05-08T02:04:03.175Z,1.90
2018-05-08T02:06:30.793Z,1.63
2018-05-08T02:08:58.411Z,1.57
2018-05-08T02:11:26.026Z,1.60
2018-05-08T02:13:54.423Z,1.83
2018-05-08T02:16:22.045Z,1.40
2018-05-08T02:18:49.635Z,2.03
2018-05-08T02:21:18.020Z,1.90
2018-05-08T02:23:45.581Z,2.10
2018-05-08T02:26:13.193Z,1.80
2018-05-08T02:28:40.785Z,1.90
2018-05-08T02:31:08.613Z,2.00
2018-05-08T02:33:36.258Z,2.30
2018-05-08T02:36:03.886Z,1.93
2018-05-08T02:38:32.233Z,2.13
2018-05-08T02:40:59.816Z,2.00
2018-05-08T02:43:28.235Z,1.53
2018-05-08T02:45:55.874Z,1.80
2018-05-08T02:48:23.513Z,1.60
2018-05-08T02:50:51.879Z,2.00
2018-05-08T02:53:19.503Z,1.70
2018-05-08T02:55:47.092Z,1.93
2018-05-08T02:58:14.678Z,1.40
2018-05-08T03:00:43.064Z,1.63
2018-05-08T03:03:10.666Z,2.00
2018-05-08T03:05:38.293Z,1.50
2018-05-08T03:08:06.676Z,1.70
2018-05-08T03:10:34.302Z,1.87
2018-05-08T03:13:01.914Z,1.53
2018-05-08T03:15:29.527Z,1.30
2018-05-08T03:17:57.109Z,1.60
2018-05-08T03:20:24.709Z,1.27
2018-05-08T03:22:52.317Z,2.00
2018-05-08T03:25:20.661Z,2.20
2018-05-08T03:27:48.281Z,2.40
2018-05-08T03:30:15.879Z,2.20
2018-05-08T03:32:43.482Z,2.13
2018-05-08T03:35:11.835Z,1.83
2018-05-08T03:37:39.577Z,2.43
2018-05-08T03:40:07.173Z,2.10
2018-05-08T03:42:34.785Z,2.43
2018-05-08T03:45:02.404Z,2.40
2018-05-08T03:47:30.812Z,2.30
2018-05-08T03:49:58.433Z,2.40
2018-05-08T03:52:26.065Z,2.07
2018-05-08T03:54:53.698Z,2.30
2018-05-08T03:57:21.292Z,2.60
2018-05-08T03:59:48.867Z,2.30
2018-05-08T04:02:28.302Z,2.53
2018-05-08T04:05:07.921Z,3.13
2018-05-08T04:07:47.357Z,2.60
2018-05-08T04:10:14.971Z,2.10
2018-05-08T04:12:43.395Z,2.43
2018-05-08T04:15:11.073Z,2.30
2018-05-08T04:17:38.570Z,2.80
2018-05-08T04:20:06.990Z,2.47
2018-05-08T04:22:34.558Z,2.70
2018-05-08T04:25:02.172Z,2.70
2018-05-08T04:27:30.530Z,2.53
2018-05-08T04:29:58.167Z,2.97
2018-05-08T04:32:25.798Z,2.50
2018-05-08T04:34:53.388Z,2.70
2018-05-08T04:37:26.888Z,2.40
2018-05-08T04:39:55.468Z,2.37
2018-05-08T04:42:37.393Z,1.73
2018-05-08T04:45:04.966Z,2.50
2018-05-08T04:47:33.624Z,3.00
2018-05-08T04:50:01.240Z,2.70
2018-05-08T04:52:28.866Z,2.50
2018-05-08T04:55:03.410Z,2.50
2018-05-08T04:57:38.400Z,2.60
2018-05-08T05:00:06.036Z,2.70
2018-05-08T05:02:33.679Z,2.80
2018-05-08T05:05:01.288Z,2.23
2018-05-08T05:07:28.926Z,2.50
2018-05-08T05:09:56.558Z,2.40
2018-05-08T05:12:24.342Z,2.10
2018-05-08T05:14:51.912Z,2.37
2018-05-08T05:17:19.480Z,2.70
2018-05-08T05:19:47.082Z,2.80
2018-05-08T05:22:15.483Z,2.40
2018-05-08T05:24:43.076Z,2.50
2018-05-08T05:27:10.797Z,2.10
2018-05-08T05:29:39.574Z,2.30
2018-05-08T05:32:07.944Z,2.35
2018-05-08T05:34:36.351Z,2.70
2018-05-08T05:37:04.017Z,2.12
2018-05-08T05:39:31.639Z,2.40
2018-05-08T05:41:59.270Z,2.58
2018-05-08T05:44:27.069Z,2.83
2018-05-08T05:46:54.651Z,2.15
2018-05-08T05:49:22.271Z,2.30
2018-05-08T05:51:49.831Z,2.70
2018-05-08T05:54:17.443Z,2.65
2018-05-08T05:56:45.019Z,3.12
2018-05-08T05:59:12.609Z,3.00
2018-05-08T06:01:40.173Z,2.70
2018-05-08T06:04:07.732Z,2.80
2018-05-08T06:06:35.317Z,2.85
2018-05-08T06:09:02.855Z,2.70
2018-05-08T06:11:30.475Z,2.45
2018-05-08T06:13:58.007Z,2.80
2018-05-08T06:16:25.639Z,2.58
2018-05-08T06:18:53.223Z,2.72
2018-05-08T06:21:21.591Z,2.90
2018-05-08T06:23:49.161Z,2.08
2018-05-08T06:26:17.831Z,2.58
2018-05-08T06:28:45.377Z,2.70
2018-05-08T06:31:12.943Z,2.70
2018-05-08T06:33:40.537Z,2.50
2018-05-08T06:36:08.176Z,2.67
2018-05-08T06:38:36.577Z,2.50
2018-05-08T06:41:04.219Z,2.55
2018-05-08T06:43:32.591Z,2.87
2018-05-08T06:46:00.187Z,2.53
2018-05-08T06:48:27.782Z,2.67
2018-05-08T06:50:55.381Z,2.50
2018-05-08T06:53:23.763Z,2.47
2018-05-08T06:55:52.137Z,2.40
2018-05-08T06:58:20.512Z,2.40
2018-05-08T07:00:48.102Z,2.30
2018-05-08T07:03:15.720Z,2.70
2018-05-08T07:05:43.315Z,2.63
2018-05-08T07:08:10.880Z,2.60
2018-05-08T07:10:38.460Z,2.50
2018-05-08T07:13:06.035Z,2.43
2018-05-08T07:15:33.629Z,2.50
2018-05-08T07:18:01.210Z,2.47
2018-05-08T07:20:29.590Z,2.70
2018-05-08T07:22:57.899Z,2.33
2018-05-08T07:25:25.489Z,2.83
2018-05-08T07:27:53.105Z,2.10
2018-05-08T07:30:20.747Z,2.53
2018-05-08T07:32:49.159Z,2.67
2018-05-08T07:35:16.759Z,2.37
2018-05-08T07:37:44.690Z,2.50
2018-05-08T07:40:12.309Z,2.30
2018-05-08T07:42:40.915Z,2.53
2018-05-08T07:45:09.937Z,2.40
2018-05-08T07:47:37.708Z,2.47
2018-05-08T07:50:05.310Z,2.25
2018-05-08T07:52:33.629Z,2.50
2018-05-08T07:55:01.249Z,2.40
2018-05-08T07:57:29.604Z,2.03
2018-05-08T07:59:58.041Z,2.30
2018-05-08T08:02:25.617Z,2.00
2018-05-08T08:04:53.251Z,2.10
2018-05-08T08:07:20.829Z,2.00
2018-05-08T08:09:48.449Z,2.37
2018-05-08T08:12:16.824Z,2.70
2018-05-08T08:14:45.221Z,2.00
2018-05-08T08:17:13.553Z,1.97
2018-05-08T08:19:41.177Z,2.20
2018-05-08T08:22:08.794Z,2.20
2018-05-08T08:24:37.237Z,2.30
2018-05-08T08:27:04.873Z,2.20
2018-05-08T08:29:32.491Z,2.00
2018-05-08T08:32:00.114Z,2.17
2018-05-08T08:34:27.730Z,2.10
2018-05-08T08:36:56.119Z,2.47
2018-05-08T08:39:24.484Z,2.30
2018-05-08T08:41:52.855Z,2.83
2018-05-08T08:44:20.459Z,2.00
2018-05-08T08:46:48.142Z,2.33
2018-05-08T08:49:15.769Z,2.10
2018-05-08T08:51:44.146Z,3.37
2018-05-08T08:54:12.495Z,2.27
2018-05-08T08:56:40.107Z,1.90
2018-05-08T08:59:07.731Z,2.23
2018-05-08T09:01:36.134Z,2.43
2018-05-08T09:04:03.826Z,2.70
2018-05-08T09:06:31.362Z,1.90
2018-05-08T09:08:59.007Z,2.30
2018-05-08T09:11:26.621Z,2.13
2018-05-08T09:13:54.187Z,2.20
2018-05-08T09:16:21.841Z,1.63
2018-05-08T09:18:49.431Z,2.23
2018-05-08T09:21:17.066Z,2.10
2018-05-08T09:23:44.674Z,2.30
2018-05-08T09:26:13.069Z,2.40
2018-05-08T09:28:40.643Z,2.60
2018-05-08T09:31:08.253Z,2.37
2018-05-08T09:33:36.613Z,2.37
2018-05-08T09:36:04.218Z,2.47
2018-05-08T09:38:31.797Z,2.50
2018-05-08T09:40:59.448Z,2.50
2018-05-08T09:43:26.964Z,2.20
2018-05-08T09:45:54.538Z,2.97
2018-05-08T09:48:22.112Z,2.20
2018-05-08T09:50:50.437Z,2.17
2018-05-08T09:53:18.026Z,2.40
2018-05-08T09:55:45.668Z,2.40
2018-05-08T09:58:13.262Z,2.60
2018-05-08T10:00:41.621Z,2.50
2018-05-08T10:03:10.739Z,2.40
2018-05-08T10:05:39.111Z,2.63
2018-05-08T10:08:06.756Z,2.50
2018-05-08T10:10:34.375Z,2.30
2018-05-08T10:13:01.975Z,2.70
2018-05-08T10:15:29.590Z,2.37
2018-05-08T10:17:57.151Z,2.90
2018-05-08T10:20:24.753Z,2.78
2018-05-08T10:22:52.341Z,2.40
2018-05-08T10:25:20.707Z,2.40
2018-05-08T10:27:48.326Z,2.60
2018-05-08T10:30:15.963Z,2.73
2018-05-08T10:32:43.626Z,2.30
2018-05-08T10:35:11.263Z,2.37
2018-05-08T10:37:39.610Z,2.70
2018-05-08T10:40:07.247Z,2.83
2018-05-08T10:42:34.878Z,2.33
2018-05-08T10:45:02.510Z,2.03
2018-05-08T10:47:30.940Z,2.50
2018-05-08T10:49:58.589Z,2.40
2018-05-08T10:52:26.178Z,2.30
2018-05-08T10:54:53.763Z,2.50
2018-05-08T10:57:21.374Z,2.30
2018-05-08T10:59:48.959Z,2.47
2018-05-08T11:02:16.588Z,2.50
2018-05-08T11:04:44.940Z,2.43
2018-05-08T11:07:12.516Z,2.30
2018-05-08T11:09:40.877Z,2.37
2018-05-08T11:12:08.476Z,2.30
2018-05-08T11:14:36.085Z,2.60
2018-05-08T11:17:03.680Z,2.97
2018-05-08T11:19:32.020Z,2.50
2018-05-08T11:21:59.644Z,2.00
2018-05-08T11:24:27.260Z,2.33
2018-05-08T11:26:54.915Z,2.30
2018-05-08T11:29:22.519Z,2.57
2018-05-08T11:31:50.176Z,2.30
2018-05-08T11:34:18.532Z,2.77
2018-05-08T11:36:46.884Z,2.33
2018-05-08T11:39:14.550Z,2.10
2018-05-08T11:41:42.163Z,4.67
2018-05-08T11:44:09.826Z,2.67
2018-05-08T11:46:37.448Z,2.80
2018-05-08T11:49:05.058Z,3.10
2018-05-08T11:51:32.616Z,2.30
2018-05-08T11:54:00.224Z,2.80
2018-05-08T11:56:27.860Z,2.50
2018-05-08T11:58:55.438Z,2.60
2018-05-08T12:01:23.094Z,2.65
2018-05-08T12:03:50.685Z,2.33
2018-05-08T12:06:19.474Z,2.10
2018-05-08T12:08:47.869Z,2.40
2018-05-08T12:11:15.440Z,2.47
2018-05-08T12:13:43.038Z,3.37
2018-05-08T12:16:10.635Z,2.40
2018-05-08T12:18:38.223Z,2.53
2018-05-08T12:21:05.858Z,2.40
2018-05-08T12:23:33.467Z,2.40
2018-05-08T12:26:01.055Z,2.58
2018-05-08T12:28:28.664Z,2.55
2018-05-08T12:30:56.295Z,2.17
2018-05-08T12:33:24.676Z,2.40
2018-05-08T12:35:53.041Z,2.30
2018-05-08T12:38:20.652Z,2.62
2018-05-08T12:40:48.251Z,2.70
2018-05-08T12:43:16.680Z,2.47
2018-05-08T12:45:44.309Z,2.45
2018-05-08T12:48:12.678Z,2.65
2018-05-08T12:50:40.289Z,2.42
2018-05-08T12:53:08.088Z,2.47
2018-05-08T12:55:35.706Z,2.22
2018-05-08T12:58:03.318Z,2.20
2018-05-08T13:00:30.944Z,2.40
2018-05-08T13:02:58.553Z,2.55
2018-05-08T13:05:27.013Z,2.70
2018-05-08T13:07:54.546Z,2.17
2018-05-08T13:10:22.126Z,2.67
2018-05-08T13:12:49.766Z,2.50
2018-05-08T13:15:18.602Z,2.47
2018-05-08T13:17:46.158Z,2.85
2018-05-08T13:20:13.754Z,2.70
2018-05-08T13:22:41.370Z,2.87
2018-05-08T13:25:08.988Z,2.70
2018-05-08T13:27:36.579Z,2.20
2018-05-08T13:30:04.227Z,2.33
2018-05-08T13:32:31.857Z,2.28
2018-05-08T13:34:59.436Z,2.58
2018-05-08T13:37:27.006Z,2.40
2018-05-08T13:39:54.616Z,2.10
2018-05-08T13:42:23.017Z,2.28
2018-05-08T13:44:50.655Z,2.40
2018-05-08T13:47:19.599Z,2.20
2018-05-08T13:49:47.189Z,2.33
2018-05-08T13:52:15.562Z,2.50
2018-05-08T13:54:43.183Z,3.20
2018-05-08T13:57:10.729Z,2.40
2018-05-08T13:59:38.335Z,2.10
2018-05-08T14:02:05.961Z,2.60
2018-05-08T14:04:33.565Z,2.30
2018-05-08T14:07:01.133Z,2.17
2018-05-08T14:09:28.767Z,2.10
2018-05-08T14:11:56.359Z,2.10
2018-05-08T14:14:23.978Z,2.50
2018-05-08T14:16:51.557Z,1.90
2018-05-08T14:19:19.212Z,2.00
2018-05-08T14:21:46.867Z,2.58
2018-05-08T14:24:14.470Z,2.00
2018-05-08T14:26:42.860Z,2.00
2018-05-08T14:29:11.220Z,1.85
2018-05-08T14:31:39.624Z,2.10
2018-05-08T14:34:07.263Z,2.55
2018-05-08T14:36:35.675Z,2.50
2018-05-08T14:39:03.277Z,2.47
2018-05-08T14:41:30.939Z,2.70
2018-05-08T14:43:58.548Z,2.28
2018-05-08T14:46:26.913Z,2.22
2018-05-08T14:48:54.523Z,1.90
2018-05-08T14:51:22.226Z,2.10
2018-05-08T14:53:49.820Z,2.07
2018-05-08T14:56:18.556Z,2.07
2018-05-08T14:58:46.941Z,2.20
2018-05-08T15:01:14.530Z,2.73
2018-05-08T15:03:42.904Z,2.37
2018-05-08T15:06:10.481Z,2.40
2018-05-08T15:08:38.108Z,2.40
2018-05-08T15:11:05.744Z,2.22
2018-05-08T15:13:33.325Z,2.20
2018-05-08T15:16:00.875Z,2.20
2018-05-08T15:18:28.490Z,2.40
2018-05-08T15:20:56.417Z,2.40
2018-05-08T15:23:24.973Z,2.45
2018-05-08T15:25:52.588Z,2.25
2018-05-08T15:28:20.942Z,2.65
2018-05-08T15:30:49.971Z,2.58
2018-05-08T15:33:17.848Z,2.80
2018-05-08T15:35:45.406Z,2.95
2018-05-08T15:38:13.021Z,2.20
2018-05-08T15:40:40.621Z,2.63
2018-05-08T15:43:08.183Z,2.57
2018-05-08T15:45:35.809Z,2.30
2018-05-08T15:48:03.381Z,2.40
2018-05-08T15:50:31.729Z,2.33
2018-05-08T15:52:59.341Z,2.53
2018-05-08T15:55:26.950Z,2.10
2018-05-08T15:57:59.344Z,2.40
2018-05-08T16:00:26.931Z,2.47
2018-05-08T16:03:11.985Z,2.65
2018-05-08T16:05:40.085Z,2.60
2018-05-08T16:08:07.671Z,2.50
2018-05-08T16:10:35.263Z,2.70
2018-05-08T16:13:02.858Z,2.70
2018-05-08T16:15:49.681Z,2.37
2018-05-08T16:18:17.336Z,2.40
2018-05-08T16:20:45.889Z,2.75
2018-05-08T16:23:14.284Z,2.50
2018-05-08T16:25:42.188Z,2.60
2018-05-08T16:28:09.848Z,2.40
2018-05-08T16:30:38.453Z,2.33
2018-05-08T16:33:06.804Z,2.70
2018-05-08T16:35:34.403Z,2.50
2018-05-08T16:38:02.004Z,2.90
2018-05-08T16:40:30.534Z,2.53
2018-05-08T16:42:58.175Z,2.50
2018-05-08T16:45:25.844Z,2.50
2018-05-08T16:47:53.493Z,2.67
2018-05-08T16:50:21.106Z,2.30
2018-05-08T16:52:49.452Z,2.43
2018-05-08T16:55:18.920Z,2.33
2018-05-08T16:57:46.533Z,2.20
2018-05-08T17:00:14.118Z,2.40
2018-05-08T17:02:42.491Z,2.57
2018-05-08T17:05:17.557Z,2.50
2018-05-08T17:10:44.718Z,2.40
2018-05-08T17:13:12.322Z,2.23
2018-05-08T17:15:59.308Z,2.53
2018-05-08T17:18:28.339Z,2.10
2018-05-08T17:20:56.731Z,2.55
2018-05-08T17:23:24.564Z,2.30
2018-05-08T17:25:52.824Z,2.50
2018-05-08T17:28:20.475Z,2.60
2018-05-08T17:30:48.064Z,2.50
2018-05-08T17:33:16.754Z,2.20
2018-05-08T17:35:44.346Z,2.30
2018-05-08T17:38:11.887Z,2.73
2018-05-08T17:40:39.550Z,2.50
2018-05-08T17:43:07.161Z,2.60
2018-05-08T17:45:34.794Z,2.60
2018-05-08T17:48:05.139Z,2.50
2018-05-08T17:50:33.483Z,2.70
2018-05-08T17:53:01.105Z,2.57
2018-05-08T17:55:28.720Z,2.60
2018-05-08T17:57:57.101Z,2.77
2018-05-08T18:00:24.684Z,2.37
2018-05-08T18:02:52.312Z,2.53
2018-05-08T18:05:19.927Z,2.60
2018-05-08T18:07:47.562Z,2.67
2018-05-08T18:10:15.167Z,2.57
2018-05-08T18:12:42.800Z,2.30
2018-05-08T18:15:10.421Z,2.47
2018-05-08T18:17:38.340Z,2.57
2018-05-08T18:20:05.830Z,2.57
2018-05-08T18:22:33.418Z,2.30
2018-05-08T18:25:01.799Z,2.57
2018-05-08T18:27:30.135Z,2.47
2018-05-08T18:29:57.748Z,2.63
2018-05-08T18:32:26.115Z,2.60
2018-05-08T18:34:54.469Z,2.50
2018-05-08T18:37:22.076Z,2.60
2018-05-08T18:40:00.118Z,2.70
2018-05-08T18:42:27.705Z,2.80
2018-05-08T18:44:55.348Z,3.30
2018-05-08T18:47:22.953Z,2.70
2018-05-08T18:49:50.556Z,3.07
2018-05-08T18:52:18.165Z,2.80
2018-05-08T18:54:46.582Z,2.80
2018-05-08T18:57:14.178Z,2.80
2018-05-08T18:59:41.773Z,2.80
2018-05-08T19:02:27.988Z,2.97
2018-05-08T19:04:55.778Z,3.27
2018-05-08T19:07:23.384Z,3.00
2018-05-08T19:09:50.954Z,2.97
2018-05-08T19:12:19.312Z,2.97
2018-05-08T19:14:46.955Z,2.90
2018-05-08T19:17:22.013Z,2.80
2018-05-08T19:19:56.083Z,3.00
2018-05-08T19:22:23.698Z,2.87
2018-05-08T19:24:51.305Z,2.80
2018-05-08T19:27:19.427Z,2.80
2018-05-08T19:29:52.720Z,2.93
2018-05-08T19:32:21.133Z,2.97
2018-05-08T19:34:54.329Z,2.90
2018-05-08T19:37:27.641Z,2.90
2018-05-08T19:39:55.259Z,2.70
2018-05-08T19:42:22.956Z,2.47
2018-05-08T19:44:50.558Z,2.67
2018-05-08T19:47:18.930Z,3.10
2018-05-08T19:49:46.607Z,2.97
2018-05-08T19:52:14.989Z,3.03
2018-05-08T19:54:46.747Z,2.67
2018-05-08T19:57:15.575Z,2.83
2018-05-08T19:59:43.183Z,3.07
2018-05-08T20:02:11.628Z,3.10
2018-05-08T20:04:39.397Z,2.63
2018-05-08T20:07:07.143Z,4.03
2018-05-08T20:09:34.767Z,3.00
2018-05-08T20:12:03.259Z,2.70
2018-05-08T20:14:31.105Z,2.67
2018-05-08T20:16:58.777Z,3.07
2018-05-08T20:19:27.447Z,3.10
2018-05-08T20:21:55.613Z,3.00
2018-05-08T20:24:23.363Z,3.20
2018-05-08T20:26:51.441Z,3.17
2018-05-08T20:29:19.059Z,2.93
2018-05-08T20:31:46.697Z,3.10
2018-05-08T20:34:15.120Z,3.30
2018-05-08T20:36:42.713Z,2.83
2018-05-08T20:39:13.521Z,2.77
2018-05-08T20:41:41.143Z,3.00
2018-05-08T20:44:08.752Z,3.20
2018-05-08T20:46:36.313Z,3.33
2018-05-08T20:49:04.167Z,3.07
2018-05-08T20:51:31.733Z,3.20
2018-05-08T20:53:59.372Z,3.03
2018-05-08T20:56:26.924Z,3.60
2018-05-08T20:58:54.615Z,3.57
2018-05-08T21:01:22.352Z,3.22
2018-05-08T21:03:50.617Z,3.23
2018-05-08T21:06:18.251Z,3.40
2018-05-08T21:08:45.868Z,3.10
2018-05-08T21:11:13.496Z,3.43
2018-05-08T21:13:41.863Z,3.53
2018-05-08T21:16:10.257Z,3.43
2018-05-08T21:18:37.881Z,3.50
2018-05-08T21:21:05.637Z,3.67
2018-05-08T21:23:33.282Z,3.60
2018-05-08T21:26:00.880Z,3.57
2018-05-08T21:28:34.091Z,3.70
2018-05-08T21:31:08.243Z,3.60
2018-05-08T21:33:35.873Z,3.80
2018-05-08T21:36:03.482Z,3.40
2018-05-08T21:38:31.114Z,3.43
2018-05-08T21:40:58.713Z,3.37
2018-05-08T21:43:26.341Z,3.80
2018-05-08T21:45:53.947Z,3.40
2018-05-08T21:48:21.545Z,3.40
2018-05-08T21:50:49.158Z,3.53
2018-05-08T21:53:16.903Z,3.47
2018-05-08T21:55:44.662Z,3.63
2018-05-08T21:58:12.255Z,3.63
2018-05-08T22:00:40.635Z,3.67
2018-05-08T22:03:09.795Z,3.73
2018-05-08T22:05:37.427Z,3.43
2018-05-08T22:08:04.996Z,3.30
2018-05-08T22:10:32.606Z,3.80
2018-05-08T22:13:00.995Z,3.40
2018-05-08T22:15:28.618Z,3.50
2018-05-08T22:17:56.219Z,3.70
2018-05-08T22:20:23.843Z,3.43
2018-05-08T22:22:51.472Z,3.27
2018-05-08T22:25:19.069Z,3.17
2018-05-08T22:27:46.706Z,3.67
2018-05-08T22:30:14.321Z,3.50
2018-05-08T22:32:42.737Z,3.30
2018-05-08T22:35:10.348Z,3.33
2018-05-08T22:37:37.972Z,3.33
2018-05-08T22:40:05.578Z,3.10
2018-05-08T22:42:33.209Z,3.50
2018-05-08T22:45:00.785Z,3.97
2018-05-08T22:47:28.420Z,3.43
2018-05-08T22:49:56.013Z,3.67
2018-05-08T22:52:23.632Z,3.73
2018-05-08T22:54:51.251Z,3.40
2018-05-08T22:57:18.837Z,3.30
2018-05-08T22:59:46.463Z,3.47
2018-05-08T23:02:14.089Z,3.70
2018-05-08T23:04:41.716Z,3.40
2018-05-08T23:07:10.113Z,2.90
2018-05-08T23:09:37.864Z,3.60
2018-05-08T23:12:05.449Z,3.33
2018-05-08T23:14:33.014Z,3.63
2018-05-08T23:17:00.599Z,3.13
2018-05-08T23:19:28.217Z,3.60
2018-05-08T23:21:55.819Z,3.80
2018-05-08T23:24:23.453Z,3.67
2018-05-08T23:26:51.073Z,3.73
2018-05-08T23:29:19.448Z,3.57
2018-05-08T23:31:47.855Z,2.67
2018-05-08T23:34:16.287Z,2.63
2018-05-08T23:36:43.919Z,2.70
2018-05-08T23:39:11.559Z,3.60
2018-05-08T23:41:39.143Z,3.00
2018-05-08T23:44:06.733Z,3.10
2018-05-08T23:46:34.311Z,3.37
2018-05-08T23:49:02.635Z,3.03
2018-05-08T23:51:30.195Z,3.23
2018-05-08T23:53:57.791Z,3.13
2018-05-08T23:56:25.409Z,3.47
2018-05-08T23:58:53.080Z,3.00
